Time;durP1;ratioP1;P1;durP2;ratioP2;P2;SDS_P1;SDS_P2;PMS_P1;PMS_P2;Temp;Humidity;BMP_temperature;BMP_pressure;BME280_temperature;BME280_humidity;BME280_pressure;Samples;Min_cycle;Max_cycle;Signal;HPM_P1;HPM_P2
2020/12/17 00:00:59;;;;;;;2.05;1.40;;;15.40;68.40;;;;;;5011705;28;20037;-76
2020/12/17 00:03:25;;;;;;;;;;;15.50;68.40;;;;;;4996288;28;20544;-77
2020/12/17 00:05:56;;;;;;;1.92;1.58;;;15.40;68.40;;;;;;5013857;28;19910;-77
2020/12/17 00:08:22;;;;;;;2.05;1.77;;;15.40;68.30;;;;;;5009822;28;20989;-77
2020/12/17 00:10:49;;;;;;;1.90;1.30;;;15.40;68.30;;;;;;5009129;28;20045;-77
2020/12/17 00:13:14;;;;;;;2.13;1.52;;;15.40;68.30;;;;;;5011206;28;20033;-77
2020/12/17 00:15:41;;;;;;;2.20;1.50;;;15.40;68.30;;;;;;5011945;28;20391;-77
2020/12/17 00:18:07;;;;;;;2.33;1.13;;;15.40;68.40;;;;;;5012394;28;20034;-77
2020/12/17 00:20:37;;;;;;;2.05;1.63;;;15.40;68.30;;;;;;5010430;28;20045;-77
2020/12/17 00:23:03;;;;;;;2.08;1.50;;;15.40;68.30;;;;;;4996177;28;20042;-78
2020/12/17 00:25:33;;;;;;;1.70;1.27;;;15.40;68.40;;;;;;5000131;28;20136;-77
2020/12/17 00:28:04;;;;;;;1.77;1.30;;;15.40;68.40;;;;;;5007666;28;20045;-77
2020/12/17 00:30:37;;;;;;;1.90;1.50;;;15.40;68.40;;;;;;4986578;28;20040;-77
2020/12/17 00:33:05;;;;;;;1.63;1.23;;;15.40;68.30;;;;;;5001628;28;20056;-77
2020/12/17 00:35:31;;;;;;;1.98;1.33;;;15.40;68.30;;;;;;5012053;28;20034;-77
2020/12/17 00:37:56;;;;;;;1.88;1.45;;;15.40;68.40;;;;;;4991607;28;20398;-77
2020/12/17 00:40:23;;;;;;;2.10;1.45;;;15.40;68.40;;;;;;4989951;28;20076;-77
2020/12/17 00:42:48;;;;;;;1.23;1.13;;;15.40;68.30;;;;;;5011178;28;20034;-77
2020/12/17 00:45:15;;;;;;;2.13;1.55;;;15.40;68.30;;;;;;4993498;28;20544;-77
2020/12/17 00:47:41;;;;;;;2.50;1.30;;;15.50;68.40;;;;;;5010384;28;20030;-78
2020/12/17 00:50:08;;;;;;;1.70;1.40;;;15.40;68.40;;;;;;5007467;28;20035;-77
2020/12/17 00:52:38;;;;;;;2.30;1.65;;;15.40;68.40;;;;;;5012053;28;20030;-77
2020/12/17 00:55:07;;;;;;;2.70;1.63;;;15.40;68.40;;;;;;5011239;28;20065;-77
2020/12/17 00:57:37;;;;;;;1.90;1.30;;;15.40;68.40;;;;;;5012117;28;20120;-77
2020/12/17 01:00:07;;;;;;;2.55;1.65;;;15.40;68.40;;;;;;4987247;28;20046;-77
2020/12/17 01:02:38;;;;;;;2.60;1.65;;;15.40;68.30;;;;;;5006967;28;20030;-77
2020/12/17 01:05:08;;;;;;;1.70;1.45;;;15.40;68.40;;;;;;5003807;28;20541;-77
2020/12/17 01:07:34;;;;;;;2.53;1.48;;;15.40;68.40;;;;;;4987547;28;20049;-77
2020/12/17 01:10:05;;;;;;;1.33;0.90;;;15.40;68.40;;;;;;5012652;28;20053;-77
2020/12/17 01:12:39;;;;;;;2.05;1.35;;;15.40;68.40;;;;;;5006806;28;20030;-78
2020/12/17 01:15:15;;;;;;;2.17;1.25;;;15.40;68.40;;;;;;4985690;28;20085;-78
2020/12/17 01:17:50;;;;;;;2.65;1.35;;;15.40;68.30;;;;;;5005717;28;20037;-77
2020/12/17 01:20:18;;;;;;;1.65;1.30;;;15.40;68.40;;;;;;5006114;28;20044;-77
2020/12/17 01:22:44;;;;;;;1.70;1.23;;;15.40;68.40;;;;;;4992406;28;20124;-77
2020/12/17 01:25:09;;;;;;;1.38;1.20;;;15.40;68.40;;;;;;5009569;28;20132;-77
2020/12/17 01:27:36;;;;;;;1.42;1.05;;;15.40;68.40;;;;;;5011294;28;20432;-77
2020/12/17 01:30:03;;;;;;;1.33;1.23;;;15.40;68.40;;;;;;5012185;28;20463;-77
2020/12/17 01:32:28;;;;;;;1.75;1.30;;;15.40;68.40;;;;;;5010170;28;20045;-77
2020/12/17 01:35:08;;;;;;;1.65;1.25;;;15.40;68.40;;;;;;5013302;28;20038;-78
2020/12/17 01:37:38;;;;;;;1.75;1.40;;;15.40;68.40;;;;;;5003732;28;20034;-77
2020/12/17 01:40:08;;;;;;;1.73;1.20;;;15.40;68.40;;;;;;4992789;28;20037;-77
2020/12/17 01:42:39;;;;;;;2.30;1.35;;;15.40;68.40;;;;;;5009088;28;20088;-77
2020/12/17 01:45:11;;;;;;;1.50;1.20;;;15.40;68.40;;;;;;5012909;28;20041;-77
2020/12/17 01:47:47;;;;;;;1.40;1.10;;;15.40;68.40;;;;;;4987429;28;20124;-77
2020/12/17 01:50:13;;;;;;;2.45;1.40;;;15.40;68.40;;;;;;4992030;28;20487;-77
2020/12/17 01:52:44;;;;;;;2.20;1.50;;;15.40;68.40;;;;;;4992510;28;20038;-77
2020/12/17 01:55:12;;;;;;;1.98;1.42;;;15.40;68.40;;;;;;5011329;28;20030;-77
2020/12/17 01:57:44;;;;;;;1.80;1.23;;;15.40;68.40;;;;;;5012157;28;20468;-77
2020/12/17 02:00:18;;;;;;;2.00;1.33;;;15.40;68.40;;;;;;5009506;28;20030;-77
2020/12/17 02:02:46;;;;;;;2.25;1.48;;;15.40;68.40;;;;;;5008819;28;20026;-77
2020/12/17 02:05:12;;;;;;;1.90;1.30;;;15.40;68.40;;;;;;5011681;28;20088;-77
2020/12/17 02:07:38;;;;;;;1.85;1.23;;;15.40;68.40;;;;;;5009398;28;20038;-77
2020/12/17 02:10:04;;;;;;;1.55;1.10;;;15.40;68.40;;;;;;4986814;28;20125;-77
2020/12/17 02:12:46;;;;;;;1.80;1.20;;;15.40;68.40;;;;;;4987181;28;20039;-77
2020/12/17 02:15:21;;;;;;;1.83;1.30;;;15.40;68.40;;;;;;5004685;28;20033;-77
2020/12/17 02:17:48;;;;;;;1.88;1.40;;;15.40;68.40;;;;;;4989281;28;20030;-78
2020/12/17 02:20:27;;;;;;;1.70;1.17;;;15.40;68.40;;;;;;5008393;28;20111;-76
2020/12/17 02:22:53;;;;;;;1.40;1.20;;;15.40;68.40;;;;;;4986743;28;20034;-77
2020/12/17 02:25:22;;;;;;;1.35;1.20;;;15.40;68.40;;;;;;5009961;28;20057;-78
2020/12/17 02:27:57;;;;;;;1.73;1.50;;;15.40;68.40;;;;;;4992195;28;20450;-78
2020/12/17 02:30:22;;;;;;;2.05;1.25;;;15.40;68.40;;;;;;5010558;28;20060;-78
2020/12/17 02:32:50;;;;;;;1.50;1.30;;;15.30;68.40;;;;;;5009335;28;20483;-77
2020/12/17 02:35:21;;;;;;;1.83;1.30;;;15.40;68.40;;;;;;4991678;28;20451;-77
2020/12/17 02:37:49;;;;;;;1.27;1.15;;;15.40;68.40;;;;;;4987701;28;20776;-77
2020/12/17 02:40:18;;;;;;;;;;;15.30;68.40;;;;;;5004965;28;20038;-76
2020/12/17 02:42:43;;;;;;;3.05;1.45;;;15.40;68.40;;;;;;5006165;28;20367;-77
2020/12/17 02:45:09;;;;;;;1.50;1.33;;;15.40;68.40;;;;;;4986630;28;20089;-77
2020/12/17 02:47:34;;;;;;;1.80;1.42;;;15.40;68.50;;;;;;5003847;28;20030;-77
2020/12/17 02:50:00;;;;;;;2.05;1.60;;;15.30;68.50;;;;;;5005321;28;20087;-77
2020/12/17 02:52:31;;;;;;;1.58;1.20;;;15.40;68.50;;;;;;4985393;28;20037;-77
2020/12/17 02:54:57;;;;;;;1.40;1.02;;;15.30;68.50;;;;;;5004775;28;20034;-77
2020/12/17 02:57:22;;;;;;;1.65;1.30;;;15.30;68.40;;;;;;4987013;28;20033;-77
2020/12/17 02:59:48;;;;;;;1.42;1.33;;;15.40;68.50;;;;;;5010654;28;20037;-77
2020/12/17 03:02:21;;;;;;;2.03;1.33;;;15.40;68.40;;;;;;5011265;28;20037;-77
2020/12/17 03:04:46;;;;;;;1.50;1.27;;;15.30;68.40;;;;;;4990612;28;20034;-77
2020/12/17 03:07:16;;;;;;;1.73;1.30;;;15.40;68.40;;;;;;5009956;28;20041;-78
2020/12/17 03:09:42;;;;;;;1.95;1.17;;;15.30;68.40;;;;;;4990308;28;20034;-78
2020/12/17 03:12:08;;;;;;;1.77;1.20;;;15.40;68.50;;;;;;4988970;28;20080;-77
2020/12/17 03:14:33;;;;;;;0.98;0.88;;;15.40;68.40;;;;;;5007569;28;20089;-77
2020/12/17 03:16:59;;;;;;;1.75;1.20;;;15.40;68.40;;;;;;5008202;28;20041;-77
2020/12/17 03:19:31;;;;;;;2.15;1.48;;;15.40;68.40;;;;;;4992019;28;20048;-77
2020/12/17 03:21:59;;;;;;;1.95;1.35;;;15.40;68.40;;;;;;5008859;28;20061;-77
2020/12/17 03:24:26;;;;;;;1.13;1.00;;;15.40;68.40;;;;;;4999025;28;20061;-75
2020/12/17 03:26:59;;;;;;;2.08;1.23;;;15.40;68.50;;;;;;5008595;28;20053;-77
2020/12/17 03:29:25;;;;;;;1.55;1.10;;;15.40;68.40;;;;;;5007767;28;20046;-77
2020/12/17 03:31:55;;;;;;;1.92;1.20;;;15.40;68.40;;;;;;5008656;28;20096;-77
2020/12/17 03:34:21;;;;;;;1.50;1.10;;;15.40;68.40;;;;;;4989817;28;20132;-77
2020/12/17 03:36:50;;;;;;;1.48;1.10;;;15.30;68.40;;;;;;4993086;28;20120;-77
2020/12/17 03:39:18;;;;;;;1.83;1.23;;;15.30;68.40;;;;;;5009820;28;20074;-78
2020/12/17 03:41:43;;;;;;;1.48;1.10;;;15.30;68.40;;;;;;4992231;28;20034;-78
2020/12/17 03:44:28;;;;;;;1.45;1.25;;;15.40;68.50;;;;;;5011556;28;20462;-77
2020/12/17 03:47:04;;;;;;;1.88;1.15;;;15.40;68.40;;;;;;4997417;28;20514;-77
2020/12/17 03:49:33;;;;;;;2.03;1.30;;;15.40;68.50;;;;;;4995874;28;20045;-77
2020/12/17 03:52:12;;;;;;;1.40;1.10;;;15.40;68.50;;;;;;4983500;28;20030;-77
2020/12/17 03:54:38;;;;;;;2.08;1.20;;;15.30;68.40;;;;;;4995783;28;20373;-77
2020/12/17 03:57:08;;;;;;;1.75;1.20;;;15.40;68.50;;;;;;5014446;28;20042;-77
2020/12/17 03:59:39;;;;;;;1.50;1.25;;;15.30;68.40;;;;;;5014081;28;20038;-77
2020/12/17 04:02:04;;;;;;;1.48;1.10;;;15.40;68.40;;;;;;5012597;28;20045;-77
2020/12/17 04:04:35;;;;;;;0.93;0.88;;;15.30;68.40;;;;;;4996373;28;20044;-77
2020/12/17 04:07:03;;;;;;;1.98;1.25;;;15.30;68.40;;;;;;5013109;28;20057;-77
2020/12/17 04:09:29;;;;;;;1.20;1.10;;;15.30;68.40;;;;;;4996293;28;20037;-76
2020/12/17 04:11:55;;;;;;;2.15;1.27;;;15.40;68.40;;;;;;5009431;28;20030;-77
2020/12/17 04:14:20;;;;;;;1.50;1.25;;;15.30;68.40;;;;;;5013123;28;20029;-77
2020/12/17 04:16:48;;;;;;;2.00;1.42;;;15.30;68.40;;;;;;5014846;28;20137;-77
2020/12/17 04:19:19;;;;;;;1.67;1.33;;;15.30;68.40;;;;;;5010652;28;20042;-77
2020/12/17 04:21:45;;;;;;;1.50;1.15;;;15.30;68.50;;;;;;5013178;28;20045;-77
2020/12/17 04:24:11;;;;;;;1.30;1.05;;;15.40;68.40;;;;;;4966504;28;20042;-77
2020/12/17 04:26:44;;;;;;;1.77;1.30;;;15.40;68.40;;;;;;5011972;28;20034;-77
2020/12/17 04:29:11;;;;;;;1.23;1.10;;;15.40;68.40;;;;;;5011840;28;20049;-76
2020/12/17 04:31:39;;;;;;;1.20;1.10;;;15.40;68.40;;;;;;4990492;28;20038;-77
2020/12/17 04:34:19;;;;;;;1.83;1.30;;;15.30;68.40;;;;;;4994214;28;20046;-77
2020/12/17 04:36:57;;;;;;;2.20;1.30;;;15.40;68.40;;;;;;5003062;28;20038;-77
2020/12/17 04:39:22;;;;;;;1.98;1.55;;;15.40;68.50;;;;;;5011937;28;20033;-77
2020/12/17 04:41:53;;;;;;;1.70;1.15;;;15.40;68.50;;;;;;4986518;28;20034;-76
2020/12/17 04:44:26;;;;;;;1.20;0.90;;;15.30;68.40;;;;;;5013798;28;20038;-77
2020/12/17 04:47:00;;;;;;;1.45;1.05;;;15.30;68.40;;;;;;5011478;28;20133;-77
2020/12/17 04:49:34;;;;;;;1.50;1.20;;;15.40;68.40;;;;;;5006882;28;20038;-77
2020/12/17 04:52:05;;;;;;;1.50;1.02;;;15.30;68.50;;;;;;5006635;28;20046;-77
2020/12/17 04:54:32;;;;;;;1.10;1.00;;;15.40;68.50;;;;;;5004334;28;20116;-79
2020/12/17 04:57:17;;;;;;;1.67;1.25;;;15.30;68.40;;;;;;5005207;28;20104;-76
2020/12/17 05:00:14;;;;;;;1.52;1.30;;;15.40;68.40;;;;;;4989649;28;20133;-77
2020/12/17 05:02:47;;;;;;;1.52;1.10;;;15.30;68.50;;;;;;5007619;28;20069;-77
2020/12/17 05:05:35;;;;;;;1.80;1.30;;;15.30;68.50;;;;;;5007379;28;20173;-78
2020/12/17 05:08:05;;;;;;;1.27;1.10;;;15.30;68.50;;;;;;5006171;28;20033;-78
2020/12/17 05:10:35;;;;;;;1.80;1.13;;;15.30;68.50;;;;;;5006852;28;20061;-77
2020/12/17 05:13:04;;;;;;;1.35;1.05;;;15.30;68.50;;;;;;5005283;28;20060;-78
2020/12/17 05:15:31;;;;;;;1.58;1.17;;;15.30;68.50;;;;;;5010179;28;20053;-78
2020/12/17 05:18:07;;;;;;;1.60;1.27;;;15.30;68.50;;;;;;4989568;28;20180;-78
2020/12/17 05:20:50;;;;;;;1.38;1.02;;;15.30;68.50;;;;;;4989497;28;20411;-78
2020/12/17 05:23:25;;;;;;;1.77;1.20;;;15.30;68.50;;;;;;4997760;28;20038;-78
2020/12/17 05:25:58;;;;;;;1.55;0.93;;;15.30;68.50;;;;;;5009349;28;20117;-77
2020/12/17 05:28:25;;;;;;;1.00;0.95;;;15.30;68.50;;;;;;4990117;28;20152;-80
2020/12/17 05:31:02;;;;;;;1.13;1.00;;;15.30;68.50;;;;;;5008411;28;20050;-78
2020/12/17 05:33:32;;;;;;;1.23;1.02;;;15.30;68.50;;;;;;5005728;28;20127;-78
2020/12/17 05:35:58;;;;;;;1.45;1.20;;;15.30;68.50;;;;;;5007861;28;20030;-78
2020/12/17 05:38:27;;;;;;;1.25;1.10;;;15.30;68.50;;;;;;5003417;28;20510;-78
2020/12/17 05:41:07;;;;;;;1.30;1.08;;;15.30;68.50;;;;;;4989683;28;20399;-78
2020/12/17 05:43:37;;;;;;;1.35;1.10;;;15.30;68.50;;;;;;4991863;28;20056;-77
2020/12/17 05:46:07;;;;;;;1.45;1.23;;;15.30;68.50;;;;;;5003471;28;20129;-77
2020/12/17 05:48:36;;;;;;;1.50;1.00;;;15.30;68.50;;;;;;5011758;28;20088;-77
2020/12/17 05:51:05;;;;;;;1.45;1.10;;;15.30;68.50;;;;;;5010935;28;20121;-78
2020/12/17 05:53:40;;;;;;;1.05;0.95;;;15.30;68.50;;;;;;5005807;28;20190;-78
2020/12/17 05:56:08;;;;;;;1.70;1.10;;;15.30;68.50;;;;;;5009552;28;20030;-78
2020/12/17 05:58:46;;;;;;;2.50;1.30;;;15.30;68.50;;;;;;5012086;28;20117;-78
2020/12/17 06:01:22;;;;;;;1.58;1.40;;;15.30;68.50;;;;;;5006143;28;20129;-78
2020/12/17 06:03:51;;;;;;;1.95;1.30;;;15.30;68.50;;;;;;4988194;28;20100;-78
2020/12/17 06:06:32;;;;;;;2.53;1.05;;;15.30;68.50;;;;;;4992002;28;20065;-78
2020/12/17 06:09:06;;;;;;;1.15;0.82;;;15.30;68.50;;;;;;5004559;28;20132;-78
2020/12/17 06:11:32;;;;;;;1.40;1.10;;;15.30;68.50;;;;;;4990606;28;20030;-78
2020/12/17 06:14:03;;;;;;;1.58;1.20;;;15.30;68.50;;;;;;5010668;28;20038;-78
2020/12/17 06:16:32;;;;;;;1.25;0.88;;;15.30;68.50;;;;;;4988978;28;20038;-77
2020/12/17 06:19:06;;;;;;;1.75;1.05;;;15.30;68.50;;;;;;5010165;28;20046;-78
2020/12/17 06:21:38;;;;;;;1.15;1.05;;;15.30;68.50;;;;;;4991564;28;20152;-77
2020/12/17 06:24:08;;;;;;;1.20;1.08;;;15.30;68.50;;;;;;5010522;28;20034;-78
2020/12/17 06:26:40;;;;;;;1.02;0.93;;;15.30;68.50;;;;;;4992709;28;20033;-77
2020/12/17 06:29:37;;;;;;;1.42;1.00;;;15.30;68.50;;;;;;5010180;28;21799;-77
2020/12/17 06:32:16;;;;;;;1.50;1.17;;;15.30;68.50;;;;;;4983768;28;20042;-78
2020/12/17 06:34:45;;;;;;;1.00;0.90;;;15.30;68.50;;;;;;4965317;28;20432;-77
2020/12/17 06:37:19;;;;;;;1.20;1.10;;;15.30;68.50;;;;;;4971594;28;20038;-76
2020/12/17 06:39:51;;;;;;;1.13;0.82;;;15.30;68.50;;;;;;4967991;28;20116;-78
2020/12/17 06:42:44;;;;;;;1.90;1.10;;;15.30;68.50;;;;;;4969720;28;20705;-77
2020/12/17 06:45:36;;;;;;;1.42;1.00;;;15.30;68.50;;;;;;4967519;28;20061;-76
2020/12/17 06:48:41;;;;;;;1.27;1.10;;;15.30;68.50;;;;;;4971875;28;20070;-78
2020/12/17 06:51:49;;;;;;;1.10;1.00;;;15.30;68.50;;;;;;4970079;28;20488;-77
2020/12/17 06:54:39;;;;;;;1.00;0.90;;;15.30;68.50;;;;;;4931085;29;20095;-78
2020/12/17 06:57:21;;;;;;;1.02;0.93;;;15.30;68.50;;;;;;4931919;29;20441;-78
2020/12/17 07:00:19;;;;;;;1.33;1.15;;;15.30;68.50;;;;;;4920090;29;20713;-78
2020/12/17 07:02:48;;;;;;;;;;;15.30;68.50;;;;;;4930600;29;20040;-78
2020/12/17 07:05:33;;;;;;;1.55;1.10;;;15.30;68.50;;;;;;4930268;29;19965;-77
2020/12/17 07:08:09;;;;;;;1.20;0.90;;;15.30;68.50;;;;;;4917670;29;20425;-77
2020/12/17 07:10:41;;;;;;;1.65;1.33;;;15.30;68.50;;;;;;4931776;29;20058;-78
2020/12/17 07:13:31;;;;;;;1.20;1.10;;;15.30;68.50;;;;;;4921200;29;20633;-78
2020/12/17 07:16:03;;;;;;;1.10;0.98;;;15.30;68.50;;;;;;4913381;29;20032;-77
2020/12/17 07:18:32;;;;;;;1.83;1.40;;;15.30;68.50;;;;;;4927924;29;20121;-78
2020/12/17 07:21:06;;;;;;;1.23;1.10;;;15.30;68.50;;;;;;4915684;29;20545;-78
2020/12/17 07:23:36;;;;;;;1.05;0.95;;;15.30;68.50;;;;;;4928158;29;20039;-78
2020/12/17 07:26:09;;;;;;;2.13;1.08;;;15.30;68.50;;;;;;4930071;29;20039;-80
2020/12/17 07:28:35;;;;;;;1.33;0.93;;;15.40;68.50;;;;;;4931615;29;20048;-79
2020/12/17 07:31:05;;;;;;;1.50;1.05;;;15.30;68.50;;;;;;4956389;28;20547;-78
2020/12/17 07:33:36;;;;;;;1.15;0.93;;;15.30;68.40;;;;;;4992288;28;20042;-78
2020/12/17 07:36:08;;;;;;;1.52;1.13;;;15.30;68.40;;;;;;5010276;28;20060;-79
2020/12/17 07:38:34;;;;;;;1.02;0.80;;;15.30;68.40;;;;;;4991318;28;20041;-77
2020/12/17 07:41:02;;;;;;;1.30;1.10;;;15.30;68.40;;;;;;4987471;28;20133;-77
2020/12/17 07:43:46;;;;;;;0.98;0.88;;;15.30;68.40;;;;;;5010389;28;20034;-76
2020/12/17 07:46:12;;;;;;;1.45;1.13;;;15.40;68.40;;;;;;5014785;28;20060;-82
2020/12/17 07:48:46;;;;;;;1.10;1.00;;;15.30;68.30;;;;;;4986370;28;20495;-79
2020/12/17 07:51:16;;;;;;;1.70;0.90;;;15.40;68.30;;;;;;5010558;28;20036;-79
2020/12/17 07:53:48;;;;;;;1.80;1.20;;;15.40;68.30;;;;;;5004351;28;20121;-79
2020/12/17 07:56:21;;;;;;;1.60;1.00;;;15.40;68.30;;;;;;5008743;28;20069;-79
2020/12/17 07:58:53;;;;;;;1.20;1.08;;;15.40;68.30;;;;;;5009012;28;20511;-80
2020/12/17 08:01:24;;;;;;;1.20;1.10;;;15.40;68.30;;;;;;4998258;28;20125;-80
2020/12/17 08:03:51;;;;;;;1.23;0.90;;;15.40;68.20;;;;;;4998612;28;20072;-80
2020/12/17 08:06:36;;;;;;;1.20;1.10;;;15.40;68.20;;;;;;5001436;28;20078;-80
2020/12/17 08:09:07;;;;;;;1.50;1.10;;;15.40;68.20;;;;;;4995780;28;20038;-80
2020/12/17 08:11:34;;;;;;;1.33;1.02;;;15.50;68.10;;;;;;5008620;28;20041;-80
2020/12/17 08:14:03;;;;;;;1.42;1.13;;;15.50;68.10;;;;;;5013948;28;20080;-79
2020/12/17 08:16:36;;;;;;;1.15;1.05;;;15.50;68.10;;;;;;4994098;28;20041;-79
2020/12/17 08:19:03;;;;;;;1.48;1.27;;;15.50;68.10;;;;;;5012806;28;20507;-80
2020/12/17 08:21:35;;;;;;;1.45;1.17;;;15.50;68.10;;;;;;4996855;28;20054;-78
2020/12/17 08:24:17;;;;;;;1.15;1.02;;;15.50;68.10;;;;;;5008151;28;20030;-79
2020/12/17 08:26:43;;;;;;;1.63;0.85;;;15.40;68.10;;;;;;4979251;28;20455;-79
2020/12/17 08:29:30;;;;;;;1.20;1.10;;;15.50;68.00;;;;;;5012292;28;20085;-80
2020/12/17 08:32:01;;;;;;;;;;;15.50;68.10;;;;;;5010642;28;20491;-79
2020/12/17 08:34:26;;;;;;;1.42;1.10;;;15.50;68.10;;;;;;4991286;28;20355;-79
2020/12/17 08:36:52;;;;;;;1.10;1.00;;;15.50;68.10;;;;;;4979818;28;20041;-79
2020/12/17 08:39:32;;;;;;;1.20;1.10;;;15.50;68.10;;;;;;5011612;28;20038;-79
2020/12/17 08:41:58;;;;;;;1.40;1.05;;;15.50;68.10;;;;;;4995995;28;20033;-79
2020/12/17 08:44:37;;;;;;;1.10;0.80;;;15.50;68.10;;;;;;4984456;28;20060;-79
2020/12/17 08:47:16;;;;;;;1.25;1.10;;;15.50;68.10;;;;;;5010942;28;20037;-80
2020/12/17 08:49:45;;;;;;;1.65;1.15;;;15.50;68.10;;;;;;5010256;28;20498;-79
2020/12/17 08:52:30;;;;;;;1.27;1.10;;;15.50;68.10;;;;;;4997790;28;20041;-79
2020/12/17 08:55:08;;;;;;;1.02;0.80;;;15.50;68.10;;;;;;5010928;28;20113;-79
2020/12/17 08:57:39;;;;;;;1.38;1.00;;;15.50;68.00;;;;;;4996669;28;20038;-79
2020/12/17 09:00:13;;;;;;;1.35;0.90;;;15.50;68.00;;;;;;4993587;28;20046;-79
2020/12/17 09:02:43;;;;;;;1.92;1.20;;;15.50;68.00;;;;;;4996454;28;20083;-79
2020/12/17 09:05:13;;;;;;;1.20;0.90;;;15.50;68.00;;;;;;5013761;28;20045;-79
2020/12/17 09:07:46;;;;;;;1.27;1.00;;;15.50;68.00;;;;;;4992655;28;20061;-78
2020/12/17 09:10:18;;;;;;;1.38;0.90;;;15.50;68.00;;;;;;4994628;28;20387;-79
2020/12/17 09:12:44;;;;;;;1.50;1.17;;;15.50;68.00;;;;;;4990630;28;20034;-79
2020/12/17 09:15:13;;;;;;;1.20;1.00;;;15.50;67.90;;;;;;4981332;28;20030;-79
2020/12/17 09:17:39;;;;;;;1.27;1.10;;;15.50;67.90;;;;;;5006913;28;20503;-78
2020/12/17 09:20:21;;;;;;;1.77;1.00;;;15.50;67.90;;;;;;4983430;28;20069;-78
2020/12/17 09:22:49;;;;;;;0.63;0.63;;;15.50;67.90;;;;;;5010717;28;20026;-79
2020/12/17 09:25:26;;;;;;;0.85;0.80;;;15.50;67.90;;;;;;4990847;28;20030;-79
2020/12/17 09:27:57;;;;;;;1.55;1.25;;;15.50;67.90;;;;;;4992100;28;20525;-79
2020/12/17 09:30:32;;;;;;;0.88;0.80;;;15.50;67.90;;;;;;4990734;28;20129;-79
2020/12/17 09:33:00;;;;;;;1.33;1.00;;;15.50;67.90;;;;;;4990476;28;20053;-78
2020/12/17 09:35:35;;;;;;;1.48;1.02;;;15.50;67.80;;;;;;5010553;28;20484;-79
2020/12/17 09:38:17;;;;;;;1.05;0.90;;;15.50;67.80;;;;;;5007434;28;20042;-78
2020/12/17 09:40:45;;;;;;;1.75;0.90;;;15.50;67.80;;;;;;5004181;28;20062;-79
2020/12/17 09:43:15;;;;;;;1.40;0.90;;;15.50;67.80;;;;;;4994759;28;20117;-79
2020/12/17 09:45:49;;;;;;;1.50;1.17;;;15.50;67.80;;;;;;4995424;28;20026;-79
2020/12/17 09:48:28;;;;;;;1.08;0.90;;;15.50;67.80;;;;;;5015431;28;20530;-79
2020/12/17 09:51:01;;;;;;;1.10;0.88;;;15.50;67.80;;;;;;5005793;28;20057;-77
2020/12/17 09:53:28;;;;;;;1.42;1.10;;;15.50;67.80;;;;;;5009574;28;20033;-79
2020/12/17 09:55:56;;;;;;;1.08;0.90;;;15.60;67.80;;;;;;5000371;28;20040;-78
2020/12/17 09:58:22;;;;;;;1.20;0.90;;;15.50;67.80;;;;;;4992893;28;20034;-78
2020/12/17 10:00:50;;;;;;;1.10;1.00;;;15.60;67.80;;;;;;4987599;28;20038;-78
2020/12/17 10:03:17;;;;;;;0.90;0.90;;;15.60;67.80;;;;;;5003201;28;20036;-77
2020/12/17 10:05:43;;;;;;;1.50;1.05;;;15.50;67.80;;;;;;5001239;28;20045;-78
2020/12/17 10:08:14;;;;;;;1.10;0.90;;;15.50;67.90;;;;;;4987171;28;20034;-77
2020/12/17 10:10:42;;;;;;;0.75;0.68;;;15.50;67.80;;;;;;5005116;28;20034;-78
2020/12/17 10:13:09;;;;;;;1.33;0.98;;;15.50;67.80;;;;;;4986326;28;20407;-77
2020/12/17 10:15:42;;;;;;;1.35;1.05;;;15.60;67.80;;;;;;5009239;28;20030;-78
2020/12/17 10:18:21;;;;;;;1.25;0.90;;;15.50;67.80;;;;;;4986193;28;20097;-77
2020/12/17 10:20:47;;;;;;;1.33;0.88;;;15.60;67.80;;;;;;4987224;28;20030;-79
2020/12/17 10:23:14;;;;;;;1.10;1.00;;;15.50;67.80;;;;;;4985904;28;20037;-77
2020/12/17 10:25:44;;;;;;;1.70;0.90;;;15.50;67.80;;;;;;5006432;28;20643;-77
2020/12/17 10:28:14;;;;;;;2.40;1.00;;;15.50;67.80;;;;;;5004916;28;20034;-78
2020/12/17 10:30:42;;;;;;;1.38;0.82;;;15.50;67.80;;;;;;4986289;28;20037;-77
2020/12/17 10:33:20;;;;;;;;;;;15.60;67.80;;;;;;4987329;28;20026;-77
2020/12/17 10:35:53;;;;;;;;;;;15.50;67.80;;;;;;5005353;28;19913;-78
2020/12/17 10:38:24;;;;;;;2.40;1.30;;;15.60;67.80;;;;;;5005478;28;19909;-78
2020/12/17 10:40:53;;;;;;;0.85;0.80;;;15.50;67.80;;;;;;5011050;28;20052;-76
2020/12/17 10:43:23;;;;;;;1.67;1.13;;;15.50;67.80;;;;;;4987567;28;20104;-78
2020/12/17 10:45:54;;;;;;;1.40;1.10;;;15.60;67.80;;;;;;4988088;28;20038;-78
2020/12/17 10:48:21;;;;;;;1.58;1.00;;;15.60;67.70;;;;;;4988007;28;20041;-77
2020/12/17 10:50:49;;;;;;;1.15;1.00;;;15.60;67.70;;;;;;5005469;28;20045;-78
2020/12/17 10:53:16;;;;;;;1.15;0.82;;;15.60;67.70;;;;;;5001481;28;20034;-78
2020/12/17 10:55:46;;;;;;;1.40;1.10;;;15.60;67.70;;;;;;4987642;28;20026;-77
2020/12/17 10:58:12;;;;;;;0.98;0.85;;;15.60;67.70;;;;;;5001580;28;20515;-77
2020/12/17 11:00:39;;;;;;;1.70;1.00;;;15.60;67.70;;;;;;4985607;28;20034;-78
2020/12/17 11:03:09;;;;;;;1.13;0.70;;;15.60;67.70;;;;;;5005069;28;20037;-78
2020/12/17 11:05:49;;;;;;;1.40;1.00;;;15.60;67.70;;;;;;5004962;28;20112;-77
2020/12/17 11:08:16;;;;;;;1.35;1.08;;;15.60;67.70;;;;;;4986853;28;20407;-77
2020/12/17 11:10:43;;;;;;;1.25;0.90;;;15.60;67.70;;;;;;4984431;28;20030;-77
2020/12/17 11:13:14;;;;;;;1.02;0.90;;;15.60;67.70;;;;;;4985626;28;20060;-77
2020/12/17 11:15:50;;;;;;;0.80;0.80;;;15.60;67.70;;;;;;4982700;28;20034;-77
2020/12/17 11:18:20;;;;;;;0.70;0.70;;;15.60;67.70;;;;;;5003199;28;20049;-78
2020/12/17 11:20:46;;;;;;;0.73;0.73;;;15.60;67.70;;;;;;5008631;28;20076;-79
2020/12/17 11:23:15;;;;;;;1.85;1.02;;;15.60;67.80;;;;;;5010404;28;20387;-77
2020/12/17 11:25:45;;;;;;;1.10;0.82;;;15.70;67.60;;;;;;4992358;28;20064;-77
2020/12/17 11:28:16;;;;;;;1.05;0.90;;;15.70;67.60;;;;;;4996112;28;20063;-77
2020/12/17 11:30:49;;;;;;;1.70;1.00;;;15.70;67.60;;;;;;4987462;28;20392;-78
2020/12/17 11:33:14;;;;;;;0.80;0.77;;;15.70;67.60;;;;;;5013930;28;20082;-78
2020/12/17 11:35:41;;;;;;;0.98;0.88;;;15.70;67.60;;;;;;5013737;28;20022;-78
2020/12/17 11:38:19;;;;;;;0.80;0.80;;;15.60;67.60;;;;;;4990886;28;20049;-78
2020/12/17 11:40:53;;;;;;;1.23;1.02;;;15.60;67.60;;;;;;4996635;28;20096;-78
2020/12/17 11:43:21;;;;;;;1.00;0.85;;;15.60;67.60;;;;;;5014280;28;20038;-78
2020/12/17 11:45:46;;;;;;;1.08;0.98;;;15.70;67.70;;;;;;4995941;28;20118;-79
2020/12/17 11:48:12;;;;;;;1.38;1.02;;;15.70;67.60;;;;;;4991680;28;20057;-79
2020/12/17 11:50:43;;;;;;;1.08;0.85;;;15.60;67.60;;;;;;4997531;28;20060;-79
2020/12/17 11:53:14;;;;;;;1.42;0.80;;;15.70;67.60;;;;;;4992767;28;20034;-78
2020/12/17 11:55:44;;;;;;;0.85;0.80;;;15.70;67.60;;;;;;4995698;28;20565;-78
2020/12/17 11:58:21;;;;;;;0.80;0.80;;;15.70;67.60;;;;;;4988935;28;20030;-77
2020/12/17 12:00:46;;;;;;;1.10;1.00;;;15.70;67.60;;;;;;4996263;28;20022;-78
2020/12/17 12:03:12;;;;;;;8.25;1.08;;;15.70;67.60;;;;;;4997140;28;20145;-79
2020/12/17 12:05:41;;;;;;;0.82;0.82;;;15.70;68.40;;;;;;5012048;28;20036;-78
2020/12/17 12:08:06;;;;;;;;;;;15.80;67.80;;;;;;5014010;28;20487;-78
2020/12/17 12:10:32;;;;;;;0.75;0.70;;;15.80;67.80;;;;;;5014393;28;19913;-78
2020/12/17 12:12:58;;;;;;;1.00;0.90;;;15.80;67.80;;;;;;4996511;28;20042;-76
2020/12/17 12:15:23;;;;;;;1.10;1.00;;;15.70;67.80;;;;;;5012540;28;20042;-78
2020/12/17 12:17:55;;;;;;;1.15;1.05;;;15.70;67.80;;;;;;5014030;28;20045;-78
2020/12/17 12:20:21;;;;;;;0.98;0.82;;;15.80;67.80;;;;;;5014210;28;20038;-78
2020/12/17 12:22:49;;;;;;;1.58;0.93;;;15.70;67.70;;;;;;5014864;28;20033;-78
2020/12/17 12:25:19;;;;;;;3.65;1.05;;;15.70;67.70;;;;;;5015027;28;20049;-78
2020/12/17 12:27:50;;;;;;;1.00;0.80;;;15.70;67.70;;;;;;5014720;28;20412;-78
2020/12/17 12:30:15;;;;;;;1.42;0.80;;;15.80;67.70;;;;;;4987758;28;20049;-78
2020/12/17 12:32:44;;;;;;;1.45;0.80;;;15.70;67.70;;;;;;4984326;28;20400;-78
2020/12/17 12:35:11;;;;;;;;;;;15.70;67.70;;;;;;5013472;28;20506;-78
2020/12/17 12:37:37;;;;;;;1.80;0.98;;;15.70;67.60;;;;;;4995381;28;19917;-78
2020/12/17 12:40:03;;;;;;;1.15;0.73;;;15.70;67.60;;;;;;5012894;28;20045;-78
2020/12/17 12:42:31;;;;;;;1.35;1.05;;;15.70;67.60;;;;;;5011626;28;20029;-78
2020/12/17 12:45:02;;;;;;;0.75;0.60;;;15.80;67.60;;;;;;4994467;28;20125;-78
2020/12/17 12:47:42;;;;;;;1.05;0.95;;;15.70;67.50;;;;;;5011865;28;20038;-78
2020/12/17 12:50:08;;;;;;;1.20;1.10;;;15.80;67.50;;;;;;5012379;28;20042;-78
2020/12/17 12:52:35;;;;;;;4.07;1.00;;;15.80;67.50;;;;;;4992108;28;20128;-78
2020/12/17 12:55:00;;;;;;;1.60;0.88;;;15.70;67.50;;;;;;4995501;28;20133;-77
2020/12/17 12:57:29;;;;;;;1.10;1.00;;;15.80;67.50;;;;;;4999251;28;20102;-78
2020/12/17 12:59:55;;;;;;;1.10;0.77;;;15.80;67.50;;;;;;5014822;28;20120;-78
2020/12/17 13:02:23;;;;;;;1.40;1.08;;;15.80;67.50;;;;;;5012966;28;20216;-78
2020/12/17 13:04:57;;;;;;;1.15;1.02;;;15.80;67.40;;;;;;5013144;28;20485;-78
2020/12/17 13:07:27;;;;;;;2.67;0.82;;;15.80;67.40;;;;;;4993704;28;20045;-77